Time;durP1;ratioP1;P1;durP2;ratioP2;P2;SDS_P1;SDS_P2;PMS_P1;PMS_P2;Temp;Humidity;BMP_temperature;BMP_pressure;BME280_temperature;BME280_humidity;BME280_pressure;Samples;Min_cycle;Max_cycle;Signal;HPM_P1;HPM_P2
2021/01/02 00:00:45;;;;;;;82.07;40.58;;;;;;;;;;5093269;28;20024;-73
2021/01/02 00:03:11;;;;;;;86.80;39.15;;;;;;;;;;5093578;28;20012;-72
2021/01/02 00:05:45;;;;;;;71.60;35.10;;;;;;;;;;5092864;28;20431;-72
2021/01/02 00:08:15;;;;;;;46.55;24.77;;;;;;;;;;5094186;28;20016;-73
2021/01/02 00:10:47;;;;;;;54.40;29.83;;;;;;;;;;5092548;28;20020;-74
2021/01/02 00:13:15;;;;;;;57.60;28.45;;;;;;;;;;5093771;28;20411;-74
2021/01/02 00:15:49;;;;;;;70.28;33.65;;;;;;;;;;5092487;28;20455;-74
2021/01/02 00:18:18;;;;;;;78.43;39.30;;;;;;;;;;5094116;28;20078;-75
2021/01/02 00:20:47;;;;;;;76.85;36.30;;;;;;;;;;5092702;28;20016;-74
2021/01/02 00:23:32;;;;;;;66.18;31.52;;;;;;;;;;5093757;28;20025;-74
2021/01/02 00:26:04;;;;;;;67.38;33.97;;;;;;;;;;5093771;28;20055;-75
2021/01/02 00:28:31;;;;;;;56.50;28.02;;;;;;;;;;5093516;28;20434;-75
2021/01/02 00:31:00;;;;;;;60.38;28.58;;;;;;;;;;5093630;28;20040;-74
2021/01/02 00:33:46;;;;;;;49.70;27.95;;;;;;;;;;5094224;28;20020;-73
2021/01/02 00:36:22;;;;;;;60.83;31.63;;;;;;;;;;5082472;28;20037;-73
2021/01/02 00:38:48;;;;;;;68.88;38.28;;;;;;;;;;5092762;28;20357;-72
2021/01/02 00:41:16;;;;;;;53.60;32.08;;;;;;;;;;5092744;28;20445;-71
2021/01/02 00:43:44;;;;;;;51.97;32.35;;;;;;;;;;5093445;28;20027;-74
2021/01/02 00:46:10;;;;;;;51.17;32.33;;;;;;;;;;5093391;28;20016;-72
2021/01/02 00:48:40;;;;;;;43.47;25.27;;;;;;;;;;5092115;28;20028;-72
2021/01/02 00:51:08;;;;;;;40.63;22.58;;;;;;;;;;5094946;28;20016;-73
2021/01/02 00:53:53;;;;;;;46.15;23.98;;;;;;;;;;5096378;28;20016;-73
2021/01/02 00:56:29;;;;;;;42.85;23.45;;;;;;;;;;5097663;28;20070;-72
2021/01/02 00:59:13;;;;;;;47.33;25.02;;;;;;;;;;5096222;28;20020;-71
2021/01/02 01:01:52;;;;;;;38.30;19.23;;;;;;;;;;5097816;28;20356;-73
2021/01/02 01:04:27;;;;;;;194.18;86.22;;;;;;;;;;5096195;28;20020;-72
2021/01/02 01:07:00;;;;;;;96.38;42.35;;;;;;;;;;5097395;28;20012;-73
2021/01/02 01:09:27;;;;;;;41.40;21.70;;;;;;;;;;5096122;28;20043;-73
2021/01/02 01:11:54;;;;;;;39.70;23.92;;;;;;;;;;5096797;28;20110;-73
2021/01/02 01:14:21;;;;;;;46.17;22.50;;;;;;;;;;5096980;28;20031;-72
2021/01/02 01:16:50;;;;;;;34.08;19.52;;;;;;;;;;5096824;28;20020;-72
2021/01/02 01:19:19;;;;;;;32.95;18.90;;;;;;;;;;5096901;28;20353;-72
2021/01/02 01:21:46;;;;;;;33.85;18.85;;;;;;;;;;5095820;28;20103;-74
2021/01/02 01:24:14;;;;;;;40.22;21.33;;;;;;;;;;5097369;28;20027;-71
2021/01/02 01:26:40;;;;;;;38.47;19.73;;;;;;;;;;5095493;28;20051;-71
2021/01/02 01:29:06;;;;;;;36.00;20.75;;;;;;;;;;5095959;28;20115;-71
2021/01/02 01:31:46;;;;;;;34.22;18.10;;;;;;;;;;5096000;28;20090;-71
2021/01/02 01:34:13;;;;;;;38.15;21.00;;;;;;;;;;5095172;28;20046;-71
2021/01/02 01:36:43;;;;;;;39.47;18.98;;;;;;;;;;5096597;28;20024;-71
2021/01/02 01:39:12;;;;;;;38.50;19.30;;;;;;;;;;5095572;28;20460;-72
2021/01/02 01:41:39;;;;;;;31.13;18.85;;;;;;;;;;5096168;28;20020;-72
2021/01/02 01:44:05;;;;;;;35.15;18.80;;;;;;;;;;5096482;28;20341;-71
2021/01/02 01:46:35;;;;;;;44.25;22.90;;;;;;;;;;5096861;28;20042;-72
2021/01/02 01:49:06;;;;;;;40.67;21.15;;;;;;;;;;5096606;28;20406;-70
2021/01/02 01:51:59;;;;;;;55.67;31.50;;;;;;;;;;5095291;28;20043;-73
2021/01/02 01:54:52;;;;;;;57.35;33.40;;;;;;;;;;5092538;28;20377;-72
2021/01/02 01:57:22;;;;;;;35.42;19.13;;;;;;;;;;5097095;28;20102;-71
2021/01/02 01:59:58;;;;;;;37.80;22.15;;;;;;;;;;5096068;28;20488;-73
2021/01/02 02:02:43;;;;;;;38.33;23.60;;;;;;;;;;5094720;28;20027;-72
2021/01/02 02:05:10;;;;;;;36.13;21.20;;;;;;;;;;5095001;28;20081;-72
2021/01/02 02:07:40;;;;;;;35.58;19.25;;;;;;;;;;5096029;28;20150;-72
2021/01/02 02:10:07;;;;;;;33.85;18.27;;;;;;;;;;5096389;28;20022;-73
2021/01/02 02:12:34;;;;;;;25.37;15.80;;;;;;;;;;5095171;28;20025;-73
2021/01/02 02:15:00;;;;;;;25.42;17.30;;;;;;;;;;5095163;28;20042;-73
2021/01/02 02:17:27;;;;;;;25.85;15.23;;;;;;;;;;5094994;28;20054;-74
2021/01/02 02:19:57;;;;;;;25.00;16.02;;;;;;;;;;5094961;28;20026;-73
2021/01/02 02:22:27;;;;;;;27.73;14.48;;;;;;;;;;5095856;28;20024;-73
2021/01/02 02:24:54;;;;;;;27.15;15.27;;;;;;;;;;5095164;28;20464;-73
2021/01/02 02:27:27;;;;;;;28.08;16.77;;;;;;;;;;5095733;28;20024;-73
2021/01/02 02:30:02;;;;;;;23.63;15.55;;;;;;;;;;5095731;28;20139;-73
2021/01/02 02:32:34;;;;;;;27.42;15.75;;;;;;;;;;5096277;28;20017;-73
2021/01/02 02:35:02;;;;;;;23.13;14.65;;;;;;;;;;5095926;28;20111;-73
2021/01/02 02:37:28;;;;;;;24.67;14.35;;;;;;;;;;5094454;28;20020;-73
2021/01/02 02:39:54;;;;;;;21.05;12.70;;;;;;;;;;5094446;28;20016;-74
2021/01/02 02:42:22;;;;;;;19.35;12.20;;;;;;;;;;5094988;28;20097;-73
2021/01/02 02:44:51;;;;;;;23.08;14.50;;;;;;;;;;5095909;28;20024;-71
2021/01/02 02:47:21;;;;;;;20.55;12.52;;;;;;;;;;5094296;28;20012;-72
2021/01/02 02:49:48;;;;;;;22.95;12.85;;;;;;;;;;5095398;28;20012;-72
2021/01/02 02:52:25;;;;;;;22.55;13.77;;;;;;;;;;5095467;28;20024;-72
2021/01/02 02:54:52;;;;;;;22.52;12.82;;;;;;;;;;5093938;28;20080;-72
2021/01/02 02:57:19;;;;;;;23.52;13.75;;;;;;;;;;5094771;28;20371;-72
2021/01/02 02:59:45;;;;;;;24.70;13.65;;;;;;;;;;5094351;28;20046;-72
2021/01/02 03:02:11;;;;;;;22.63;12.30;;;;;;;;;;5093950;28;20023;-73
2021/01/02 03:04:38;;;;;;;18.83;11.93;;;;;;;;;;5095026;28;20024;-73
2021/01/02 03:07:04;;;;;;;24.60;12.15;;;;;;;;;;5094284;28;20027;-72
2021/01/02 03:09:31;;;;;;;23.67;12.83;;;;;;;;;;5095713;28;20065;-72
2021/01/02 03:11:57;;;;;;;30.05;12.95;;;;;;;;;;5093435;28;20027;-71
2021/01/02 03:14:23;;;;;;;27.25;13.55;;;;;;;;;;5093610;28;20020;-73
2021/01/02 03:16:50;;;;;;;31.13;15.18;;;;;;;;;;5094984;28;20020;-72
2021/01/02 03:19:16;;;;;;;26.58;12.95;;;;;;;;;;5094344;28;20631;-72
2021/01/02 03:21:42;;;;;;;20.85;12.55;;;;;;;;;;5095137;28;20044;-72
2021/01/02 03:24:09;;;;;;;20.23;11.65;;;;;;;;;;5093646;28;20024;-73
2021/01/02 03:26:35;;;;;;;21.40;13.02;;;;;;;;;;5094208;28;20364;-72
2021/01/02 03:29:01;;;;;;;23.15;11.88;;;;;;;;;;5094439;28;20460;-74
2021/01/02 03:31:27;;;;;;;19.98;11.15;;;;;;;;;;5093348;28;20044;-73
2021/01/02 03:33:53;;;;;;;25.17;12.98;;;;;;;;;;5093443;28;20023;-74
2021/01/02 03:36:20;;;;;;;17.98;10.02;;;;;;;;;;5093545;28;20357;-74
2021/01/02 03:38:52;;;;;;;20.42;12.25;;;;;;;;;;5093111;28;20016;-74
2021/01/02 03:41:18;;;;;;;17.92;10.45;;;;;;;;;;5094908;28;20019;-72
2021/01/02 03:43:44;;;;;;;17.88;10.90;;;;;;;;;;5093177;28;20016;-72
2021/01/02 03:46:11;;;;;;;16.75;10.02;;;;;;;;;;5094553;28;20518;-72
2021/01/02 03:48:37;;;;;;;18.23;11.10;;;;;;;;;;5094052;28;20365;-72
2021/01/02 03:51:03;;;;;;;20.75;11.98;;;;;;;;;;5094761;28;20027;-73
2021/01/02 03:53:30;;;;;;;19.55;11.68;;;;;;;;;;5092885;28;20365;-73
2021/01/02 03:55:56;;;;;;;19.38;11.02;;;;;;;;;;5092934;28;20484;-73
2021/01/02 03:58:22;;;;;;;19.77;10.70;;;;;;;;;;5092688;28;20062;-73
2021/01/02 04:00:48;;;;;;;14.85;9.27;;;;;;;;;;5092698;28;20468;-74
2021/01/02 04:03:14;;;;;;;15.73;9.18;;;;;;;;;;5094189;28;20012;-72
2021/01/02 04:05:44;;;;;;;15.55;8.65;;;;;;;;;;5092825;28;20070;-72
2021/01/02 04:08:10;;;;;;;12.88;9.02;;;;;;;;;;5092657;28;20541;-73
2021/01/02 04:10:36;;;;;;;16.45;9.38;;;;;;;;;;5093077;28;20023;-74
2021/01/02 04:13:02;;;;;;;19.60;9.57;;;;;;;;;;5094164;28;20087;-75
2021/01/02 04:15:28;;;;;;;17.70;9.23;;;;;;;;;;5092632;28;20020;-76
2021/01/02 04:17:55;;;;;;;17.73;10.52;;;;;;;;;;5094265;28;20068;-73
2021/01/02 04:20:22;;;;;;;16.75;9.57;;;;;;;;;;5092551;28;20019;-75
2021/01/02 04:22:48;;;;;;;19.17;11.70;;;;;;;;;;5092775;28;20158;-74
2021/01/02 04:25:15;;;;;;;18.90;10.88;;;;;;;;;;5093130;28;20028;-74
2021/01/02 04:27:41;;;;;;;20.63;10.07;;;;;;;;;;5098418;28;20111;-75
2021/01/02 04:30:07;;;;;;;18.17;10.45;;;;;;;;;;5098048;28;20043;-73
2021/01/02 04:32:33;;;;;;;16.83;9.57;;;;;;;;;;5096943;28;20089;-72
2021/01/02 04:34:59;;;;;;;20.52;8.63;;;;;;;;;;5096704;28;20112;-73
2021/01/02 04:37:27;;;;;;;15.93;9.70;;;;;;;;;;5098374;28;20028;-73
2021/01/02 04:39:53;;;;;;;16.10;9.73;;;;;;;;;;5097046;28;20369;-74
2021/01/02 04:42:20;;;;;;;18.25;9.05;;;;;;;;;;5096628;28;20449;-73
2021/01/02 04:44:48;;;;;;;15.77;9.23;;;;;;;;;;5098044;28;20027;-73
2021/01/02 04:47:15;;;;;;;15.13;8.55;;;;;;;;;;5098445;28;20016;-74
2021/01/02 04:49:41;;;;;;;12.40;7.93;;;;;;;;;;5097818;28;20019;-73
2021/01/02 04:52:07;;;;;;;15.15;8.88;;;;;;;;;;5096891;28;20593;-74
2021/01/02 04:54:34;;;;;;;18.00;9.60;;;;;;;;;;5098155;28;20063;-74
2021/01/02 04:57:00;;;;;;;19.48;10.52;;;;;;;;;;5097728;28;20103;-74
2021/01/02 04:59:27;;;;;;;14.80;10.30;;;;;;;;;;5097959;28;20012;-74
2021/01/02 05:01:54;;;;;;;18.00;10.25;;;;;;;;;;5096388;28;20020;-75
2021/01/02 05:04:21;;;;;;;17.77;8.98;;;;;;;;;;5096465;28;20410;-74
2021/01/02 05:06:47;;;;;;;15.75;10.20;;;;;;;;;;5097120;28;20020;-74
2021/01/02 05:09:13;;;;;;;15.90;7.85;;;;;;;;;;5096247;28;20016;-72
2021/01/02 05:11:40;;;;;;;12.68;7.55;;;;;;;;;;5097165;28;20020;-74
2021/01/02 05:14:07;;;;;;;16.00;7.63;;;;;;;;;;5096043;28;20012;-73
2021/01/02 05:16:41;;;;;;;20.10;9.43;;;;;;;;;;5097231;28;20024;-75
2021/01/02 05:19:09;;;;;;;13.73;8.07;;;;;;;;;;5096291;28;20048;-73
2021/01/02 05:21:35;;;;;;;;;;;;;;;;;;5097726;28;20023;-75
2021/01/02 05:24:05;;;;;;;15.35;8.93;;;;;;;;;;5096660;28;19903;-72
2021/01/02 05:26:31;;;;;;;19.70;11.70;;;;;;;;;;5096000;28;20016;-72
2021/01/02 05:29:30;;;;;;;14.30;9.83;;;;;;;;;;5095560;28;20008;-72
2021/01/02 05:32:03;;;;;;;18.13;10.73;;;;;;;;;;5072897;28;20130;-72
2021/01/02 05:34:30;;;;;;;16.83;9.20;;;;;;;;;;5095847;28;20047;-72
2021/01/02 05:37:00;;;;;;;15.77;9.57;;;;;;;;;;5095243;28;20023;-73
2021/01/02 05:39:49;;;;;;;17.65;10.38;;;;;;;;;;5095369;28;20028;-72
2021/01/02 05:42:15;;;;;;;15.10;8.50;;;;;;;;;;5096534;28;20019;-74
2021/01/02 05:44:42;;;;;;;15.20;8.43;;;;;;;;;;5095464;28;20439;-72
2021/01/02 05:47:11;;;;;;;14.10;9.27;;;;;;;;;;5096819;28;20024;-71
2021/01/02 05:49:37;;;;;;;11.45;6.75;;;;;;;;;;5096434;28;20542;-73
2021/01/02 05:52:05;;;;;;;13.27;8.18;;;;;;;;;;5095152;28;20070;-72
2021/01/02 05:54:32;;;;;;;11.65;7.50;;;;;;;;;;5096525;28;20016;-73
2021/01/02 05:57:05;;;;;;;13.20;7.32;;;;;;;;;;5095045;28;20032;-73
2021/01/02 05:59:31;;;;;;;14.80;8.43;;;;;;;;;;5094983;28;20358;-72
2021/01/02 06:01:58;;;;;;;12.43;6.53;;;;;;;;;;5095394;28;20020;-71
2021/01/02 06:04:24;;;;;;;16.10;9.07;;;;;;;;;;5095940;28;20047;-73
2021/01/02 06:07:06;;;;;;;13.75;6.63;;;;;;;;;;5094840;28;20415;-72
2021/01/02 06:09:36;;;;;;;12.63;7.38;;;;;;;;;;5095116;28;20114;-74
2021/01/02 06:12:05;;;;;;;16.50;9.27;;;;;;;;;;5095976;28;20052;-72
2021/01/02 06:14:33;;;;;;;18.50;8.27;;;;;;;;;;5096072;28;20053;-72
2021/01/02 06:17:04;;;;;;;15.80;9.25;;;;;;;;;;5094978;28;20111;-72
2021/01/02 06:19:30;;;;;;;12.48;7.60;;;;;;;;;;5096107;28;20051;-74
2021/01/02 06:21:56;;;;;;;17.48;11.98;;;;;;;;;;5095664;28;20031;-73
2021/01/02 06:24:22;;;;;;;17.98;10.73;;;;;;;;;;5094773;28;20024;-73
2021/01/02 06:26:48;;;;;;;48.80;35.95;;;;;;;;;;5094411;28;20023;-73
2021/01/02 06:29:15;;;;;;;28.30;17.00;;;;;;;;;;5094768;28;20028;-74
2021/01/02 06:31:41;;;;;;;26.25;13.38;;;;;;;;;;5096814;28;20468;-73
2021/01/02 06:34:07;;;;;;;26.25;16.38;;;;;;;;;;5094494;28;20020;-75
2021/01/02 06:36:33;;;;;;;19.52;11.73;;;;;;;;;;5096601;28;20032;-76
2021/01/02 06:39:18;;;;;;;19.10;12.38;;;;;;;;;;5095104;28;20047;-74
2021/01/02 06:41:44;;;;;;;18.30;11.00;;;;;;;;;;5094582;28;20093;-74
2021/01/02 06:44:10;;;;;;;24.52;13.25;;;;;;;;;;5094837;28;20016;-75
2021/01/02 06:46:37;;;;;;;20.52;11.90;;;;;;;;;;5096328;28;20097;-74
2021/01/02 06:49:23;;;;;;;23.40;14.23;;;;;;;;;;5093833;28;20346;-74
2021/01/02 06:51:52;;;;;;;29.80;14.55;;;;;;;;;;5095952;28;20346;-73
2021/01/02 06:54:23;;;;;;;21.73;11.80;;;;;;;;;;5093879;28;20020;-73
2021/01/02 06:57:00;;;;;;;22.58;13.50;;;;;;;;;;5094587;28;20031;-74
2021/01/02 06:59:26;;;;;;;23.45;15.50;;;;;;;;;;5096161;28;20069;-72
2021/01/02 07:01:52;;;;;;;34.10;17.98;;;;;;;;;;5093691;28;20024;-72
2021/01/02 07:04:33;;;;;;;33.13;17.25;;;;;;;;;;5094083;28;20020;-72
2021/01/02 07:06:59;;;;;;;28.88;16.30;;;;;;;;;;5094014;28;20346;-72
2021/01/02 07:09:26;;;;;;;35.08;18.58;;;;;;;;;;5094617;28;20031;-72
2021/01/02 07:11:53;;;;;;;23.63;13.27;;;;;;;;;;5094763;28;20376;-69
2021/01/02 07:14:20;;;;;;;19.55;11.80;;;;;;;;;;5094646;28;20024;-66
2021/01/02 07:16:55;;;;;;;22.88;14.30;;;;;;;;;;5093392;28;20503;-71
2021/01/02 07:19:29;;;;;;;22.40;13.70;;;;;;;;;;5094883;28;20024;-72
2021/01/02 07:22:14;;;;;;;18.35;11.02;;;;;;;;;;5095313;28;20107;-73
2021/01/02 07:24:42;;;;;;;17.00;10.75;;;;;;;;;;5094315;28;20376;-68
2021/01/02 07:27:10;;;;;;;22.15;13.50;;;;;;;;;;5095388;28;20077;-75
2021/01/02 07:29:37;;;;;;;34.83;22.73;;;;;;;;;;5094046;28;20575;-75
2021/01/02 07:32:07;;;;;;;23.60;13.27;;;;;;;;;;5094959;28;20020;-72
2021/01/02 07:34:33;;;;;;;28.35;17.30;;;;;;;;;;5093448;28;20035;-71
2021/01/02 07:37:04;;;;;;;27.48;18.40;;;;;;;;;;5094205;28;20040;-69
2021/01/02 07:39:30;;;;;;;30.73;16.33;;;;;;;;;;5095113;28;20020;-73
2021/01/02 07:42:00;;;;;;;26.35;17.73;;;;;;;;;;5094539;28;20012;-70
2021/01/02 07:44:26;;;;;;;25.65;15.07;;;;;;;;;;5093238;28;20012;-70
2021/01/02 07:46:53;;;;;;;25.17;14.43;;;;;;;;;;5094429;28;20174;-70
2021/01/02 07:49:19;;;;;;;28.63;18.30;;;;;;;;;;5093110;28;20020;-68
2021/01/02 07:51:49;;;;;;;22.10;16.02;;;;;;;;;;5092720;28;20016;-71
2021/01/02 07:54:28;;;;;;;31.35;18.80;;;;;;;;;;5092947;28;20026;-71
2021/01/02 07:56:54;;;;;;;30.30;18.30;;;;;;;;;;5092972;28;20020;-69
2021/01/02 07:59:21;;;;;;;31.05;20.45;;;;;;;;;;5092538;28;20062;-71
2021/01/02 08:01:51;;;;;;;20.65;13.88;;;;;;;;;;5092942;28;20012;-73
2021/01/02 08:04:18;;;;;;;23.90;11.68;;;;;;;;;;5092607;28;20544;-72
2021/01/02 08:06:48;;;;;;;30.55;16.23;;;;;;;;;;5093907;28;20061;-73
2021/01/02 08:09:14;;;;;;;28.55;18.20;;;;;;;;;;5094347;28;20016;-69
2021/01/02 08:12:06;;;;;;;29.08;15.52;;;;;;;;;;5094039;28;20049;-71
2021/01/02 08:14:33;;;;;;;29.15;15.45;;;;;;;;;;5090047;28;20028;-71
2021/01/02 08:17:01;;;;;;;25.67;15.35;;;;;;;;;;5091090;28;20458;-71
2021/01/02 08:19:50;;;;;;;25.17;15.80;;;;;;;;;;5090808;28;20031;-69
2021/01/02 08:22:39;;;;;;;24.65;14.98;;;;;;;;;;5085539;28;20028;-70
2021/01/02 08:25:10;;;;;;;27.45;13.73;;;;;;;;;;5083113;28;20109;-70
2021/01/02 08:27:36;;;;;;;23.90;14.45;;;;;;;;;;5091044;28;20579;-71
2021/01/02 08:30:05;;;;;;;23.02;13.30;;;;;;;;;;5092528;28;20036;-72
2021/01/02 08:32:32;;;;;;;23.50;14.38;;;;;;;;;;5090937;28;20020;-72
2021/01/02 08:34:59;;;;;;;28.85;15.30;;;;;;;;;;5090947;28;20020;-71
2021/01/02 08:37:25;;;;;;;34.10;18.90;;;;;;;;;;5091145;28;20044;-71
2021/01/02 08:40:23;;;;;;;28.88;16.02;;;;;;;;;;5091833;28;20065;-72
2021/01/02 08:42:50;;;;;;;31.88;20.45;;;;;;;;;;5068864;28;20085;-69
2021/01/02 08:45:30;;;;;;;43.50;24.17;;;;;;;;;;5091228;28;20018;-72
2021/01/02 08:48:05;;;;;;;31.85;20.02;;;;;;;;;;5091009;28;20451;-71
2021/01/02 08:50:32;;;;;;;23.15;14.88;;;;;;;;;;5105998;28;20039;-71
2021/01/02 08:52:58;;;;;;;24.10;15.18;;;;;;;;;;5091090;28;20150;-72
2021/01/02 08:55:24;;;;;;;23.17;12.65;;;;;;;;;;5091569;28;20095;-71
2021/01/02 08:57:51;;;;;;;25.10;12.30;;;;;;;;;;5092282;28;20078;-72
2021/01/02 09:00:18;;;;;;;23.90;14.23;;;;;;;;;;5092283;28;20035;-72
2021/01/02 09:02:46;;;;;;;24.55;12.98;;;;;;;;;;5090903;28;20016;-71
2021/01/02 09:05:12;;;;;;;32.70;20.58;;;;;;;;;;5090830;28;20429;-72
2021/01/02 09:07:39;;;;;;;22.52;13.93;;;;;;;;;;5091874;28;20362;-73
2021/01/02 09:10:32;;;;;;;21.70;13.93;;;;;;;;;;5090898;28;20352;-74
2021/01/02 09:13:01;;;;;;;19.85;12.68;;;;;;;;;;5092563;28;20027;-73
2021/01/02 09:15:40;;;;;;;28.75;17.00;;;;;;;;;;5096387;28;20020;-74
2021/01/02 09:18:07;;;;;;;28.33;13.45;;;;;;;;;;5096796;28;20468;-72
2021/01/02 09:20:33;;;;;;;32.30;15.80;;;;;;;;;;5096200;28;20115;-72
2021/01/02 09:22:59;;;;;;;24.15;11.88;;;;;;;;;;5095830;28;20240;-71
2021/01/02 09:25:29;;;;;;;24.23;13.95;;;;;;;;;;5095840;28;20054;-71
2021/01/02 09:27:55;;;;;;;20.92;12.48;;;;;;;;;;5095757;28;20020;-73
2021/01/02 09:30:22;;;;;;;46.47;23.10;;;;;;;;;;5096633;28;20055;-71
2021/01/02 09:32:48;;;;;;;30.75;14.80;;;;;;;;;;5097012;28;20327;-73
2021/01/02 09:35:14;;;;;;;29.13;17.27;;;;;;;;;;5095557;28;20364;-72
2021/01/02 09:37:41;;;;;;;25.50;13.98;;;;;;;;;;5096588;28;20528;-70
2021/01/02 09:40:12;;;;;;;20.42;12.35;;;;;;;;;;5095581;28;20051;-73
2021/01/02 09:42:38;;;;;;;24.35;14.70;;;;;;;;;;5095188;28;20033;-73
2021/01/02 09:45:04;;;;;;;20.00;10.55;;;;;;;;;;5095426;28;20547;-72
2021/01/02 09:47:30;;;;;;;21.77;10.90;;;;;;;;;;5096564;28;20012;-72
2021/01/02 09:49:56;;;;;;;20.77;10.70;;;;;;;;;;5096021;28;20389;-70
2021/01/02 09:52:22;;;;;;;16.52;8.88;;;;;;;;;;5096839;28;20066;-71
2021/01/02 09:54:49;;;;;;;14.68;8.20;;;;;;;;;;5096451;28;20366;-75
2021/01/02 09:57:15;;;;;;;16.77;8.88;;;;;;;;;;5096172;28;20142;-73
2021/01/02 09:59:43;;;;;;;18.30;10.13;;;;;;;;;;5096764;28;20456;-74
2021/01/02 10:02:09;;;;;;;21.10;11.35;;;;;;;;;;5096575;28;20016;-73
2021/01/02 10:04:41;;;;;;;29.52;14.90;;;;;;;;;;5095776;28;20019;-72
2021/01/02 10:07:07;;;;;;;16.98;10.38;;;;;;;;;;5096526;28;20023;-73
2021/01/02 10:09:33;;;;;;;47.22;20.10;;;;;;;;;;5094970;28;20032;-74
2021/01/02 10:11:59;;;;;;;22.23;11.82;;;;;;;;;;5095884;28;20012;-75
2021/01/02 10:14:27;;;;;;;20.25;11.25;;;;;;;;;;5094851;28;20051;-72
2021/01/02 10:16:55;;;;;;;27.38;13.60;;;;;;;;;;5096123;28;20028;-72
2021/01/02 10:19:21;;;;;;;23.60;11.43;;;;;;;;;;5094491;28;20051;-75
2021/01/02 10:21:48;;;;;;;22.13;10.52;;;;;;;;;;5096053;28;20020;-74
2021/01/02 10:24:14;;;;;;;19.33;11.57;;;;;;;;;;5095318;28;20069;-69
2021/01/02 10:26:40;;;;;;;15.05;9.93;;;;;;;;;;5095358;28;20520;-68
2021/01/02 10:29:06;;;;;;;26.20;15.55;;;;;;;;;;5096214;28;20024;-69
2021/01/02 10:31:33;;;;;;;20.02;9.45;;;;;;;;;;5095863;28;20376;-69
2021/01/02 10:33:59;;;;;;;21.15;8.85;;;;;;;;;;5095957;28;20020;-68
2021/01/02 10:36:25;;;;;;;15.23;10.07;;;;;;;;;;5094433;28;20035;-68
2021/01/02 10:38:51;;;;;;;14.38;7.85;;;;;;;;;;5094186;28;20337;-69
2021/01/02 10:41:17;;;;;;;18.67;10.75;;;;;;;;;;5094366;28;20016;-68
2021/01/02 10:43:43;;;;;;;22.15;13.77;;;;;;;;;;5095629;28;20019;-68
2021/01/02 10:46:10;;;;;;;15.85;9.75;;;;;;;;;;5095130;28;20465;-67
2021/01/02 10:48:36;;;;;;;18.63;12.52;;;;;;;;;;5095069;28;20110;-68
2021/01/02 10:51:03;;;;;;;19.67;12.30;;;;;;;;;;5095465;28;20391;-70
2021/01/02 10:53:29;;;;;;;23.10;11.85;;;;;;;;;;5095122;28;20320;-69
2021/01/02 10:55:55;;;;;;;15.38;8.55;;;;;;;;;;5095552;28;20028;-70
2021/01/02 10:58:21;;;;;;;12.65;8.43;;;;;;;;;;5094024;28;20023;-69
2021/01/02 11:00:47;;;;;;;14.93;8.25;;;;;;;;;;5095038;28;20453;-72
2021/01/02 11:03:13;;;;;;;13.35;5.88;;;;;;;;;;5093959;28;20024;-72
2021/01/02 11:05:39;;;;;;;10.15;5.43;;;;;;;;;;5094895;28;20044;-71
2021/01/02 11:08:05;;;;;;;14.38;7.22;;;;;;;;;;5095156;28;20012;-71
2021/01/02 11:10:31;;;;;;;18.33;8.15;;;;;;;;;;5094755;28;20020;-71
2021/01/02 11:12:57;;;;;;;17.58;8.93;;;;;;;;;;5095312;28;20016;-70
2021/01/02 11:15:24;;;;;;;13.70;8.30;;;;;;;;;;5094292;28;20460;-69
2021/01/02 11:17:50;;;;;;;14.05;8.00;;;;;;;;;;5093669;28;20106;-68
2021/01/02 11:20:16;;;;;;;19.58;10.55;;;;;;;;;;5094860;28;20448;-70
2021/01/02 11:22:42;;;;;;;14.82;8.05;;;;;;;;;;5094717;28;20349;-71
2021/01/02 11:25:08;;;;;;;15.32;8.60;;;;;;;;;;5093542;28;20158;-71
2021/01/02 11:27:34;;;;;;;18.17;10.85;;;;;;;;;;5093174;28;20035;-72
2021/01/02 11:30:00;;;;;;;12.65;8.70;;;;;;;;;;5094885;28;20044;-68
2021/01/02 11:32:27;;;;;;;10.63;6.47;;;;;;;;;;5093615;28;20016;-70
2021/01/02 11:34:53;;;;;;;11.77;7.50;;;;;;;;;;5092529;28;20050;-68
2021/01/02 11:37:19;;;;;;;11.73;6.63;;;;;;;;;;5094636;28;20119;-68
2021/01/02 11:39:45;;;;;;;14.75;8.35;;;;;;;;;;5093252;28;20020;-69
2021/01/02 11:42:14;;;;;;;17.38;9.30;;;;;;;;;;5094365;28;20016;-68
2021/01/02 11:44:40;;;;;;;15.07;9.85;;;;;;;;;;5094170;28;20016;-66
2021/01/02 11:47:06;;;;;;;14.10;8.48;;;;;;;;;;5094217;28;20364;-67
2021/01/02 11:49:35;;;;;;;22.10;8.40;;;;;;;;;;5094257;28;20027;-66
2021/01/02 11:52:03;;;;;;;12.63;7.25;;;;;;;;;;5093339;28;20397;-71
2021/01/02 11:54:34;;;;;;;11.88;6.78;;;;;;;;;;5093961;28;20461;-69
2021/01/02 11:57:00;;;;;;;16.65;10.15;;;;;;;;;;5094399;28;20024;-67
2021/01/02 11:59:27;;;;;;;17.35;10.00;;;;;;;;;;5092978;28;20106;-67
2021/01/02 12:01:54;;;;;;;18.87;9.87;;;;;;;;;;5092946;28;20027;-68
2021/01/02 12:04:22;;;;;;;21.65;11.88;;;;;;;;;;5093935;28;20060;-68
2021/01/02 12:06:48;;;;;;;23.08;12.68;;;;;;;;;;5094434;28;20016;-69
2021/01/02 12:09:15;;;;;;;25.05;12.80;;;;;;;;;;5092860;28;20016;-68
2021/01/02 12:11:42;;;;;;;13.73;8.07;;;;;;;;;;5093948;28;20034;-67
2021/01/02 12:14:10;;;;;;;10.73;6.82;;;;;;;;;;5094590;28;20024;-68
2021/01/02 12:16:36;;;;;;;;;;;;;;;;;;5094425;28;20081;-68
2021/01/02 12:19:03;;;;;;;11.55;7.05;;;;;;;;;;5093736;28;19998;-70
2021/01/02 12:21:29;;;;;;;13.25;7.53;;;;;;;;;;5094040;28;20016;-68
2021/01/02 12:23:56;;;;;;;84.18;35.33;;;;;;;;;;5092337;28;20016;-68
2021/01/02 12:26:22;;;;;;;85.95;30.85;;;;;;;;;;5093641;28;20040;-68
2021/01/02 12:28:49;;;;;;;93.68;40.45;;;;;;;;;;5094197;28;20469;-68
2021/01/02 12:31:20;;;;;;;77.97;32.00;;;;;;;;;;5093206;28;20221;-70
2021/01/02 12:33:46;;;;;;;110.35;36.55;;;;;;;;;;5092290;28;20020;-69
2021/01/02 12:36:13;;;;;;;88.72;29.88;;;;;;;;;;5093751;28;20028;-68
2021/01/02 12:38:40;;;;;;;35.67;14.63;;;;;;;;;;5093791;28;20024;-68
2021/01/02 12:41:06;;;;;;;24.67;11.00;;;;;;;;;;5093535;28;20469;-68
2021/01/02 12:43:32;;;;;;;21.35;9.95;;;;;;;;;;5093890;28;20016;-69
2021/01/02 12:45:58;;;;;;;13.57;8.68;;;;;;;;;;5093473;28;20023;-70
2021/01/02 12:48:25;;;;;;;19.60;10.00;;;;;;;;;;5097453;28;20059;-68
2021/01/02 12:50:54;;;;;;;13.75;7.07;;;;;;;;;;5098142;28;20012;-66
2021/01/02 12:53:20;;;;;;;8.25;5.13;;;;;;;;;;5096225;28;20103;-67
2021/01/02 12:55:47;;;;;;;18.75;12.20;;;;;;;;;;5097609;28;20413;-66
2021/01/02 12:58:13;;;;;;;12.38;7.10;;;;;;;;;;5097668;28;20025;-69
2021/01/02 13:00:39;;;;;;;49.40;25.60;;;;;;;;;;5097312;28;20445;-71
2021/01/02 13:03:05;;;;;;;63.80;27.67;;;;;;;;;;5097285;28;20024;-69
2021/01/02 13:05:31;;;;;;;65.10;23.45;;;;;;;;;;5097962;28;20484;-67
2021/01/02 13:07:57;;;;;;;88.55;33.97;;;;;;;;;;5097757;28;20060;-68
2021/01/02 13:10:23;;;;;;;108.38;41.22;;;;;;;;;;5097967;28;20114;-70
2021/01/02 13:12:49;;;;;;;32.40;13.85;;;;;;;;;;5097251;28;20028;-67
2021/01/02 13:15:16;;;;;;;56.67;23.75;;;;;;;;;;5096509;28;20093;-70
2021/01/02 13:17:42;;;;;;;33.25;17.13;;;;;;;;;;5096038;28;20422;-68
2021/01/02 13:20:09;;;;;;;43.53;18.38;;;;;;;;;;5095638;28;20369;-69
2021/01/02 13:22:35;;;;;;;65.78;29.13;;;;;;;;;;5096897;28;20019;-70
2021/01/02 13:25:01;;;;;;;127.47;64.65;;;;;;;;;;5097162;28;20016;-72
2021/01/02 13:27:27;;;;;;;151.98;66.50;;;;;;;;;;5095820;28;20016;-71
2021/01/02 13:29:54;;;;;;;89.40;42.25;;;;;;;;;;5095542;28;20044;-72
2021/01/02 13:32:20;;;;;;;75.53;37.57;;;;;;;;;;5095711;28;20012;-72
2021/01/02 13:34:46;;;;;;;64.40;30.37;;;;;;;;;;5096883;28;20016;-71
2021/01/02 13:37:14;;;;;;;85.75;41.53;;;;;;;;;;5096872;28;20077;-71
2021/01/02 13:39:41;;;;;;;81.45;41.15;;;;;;;;;;5095827;28;20030;-72
2021/01/02 13:42:09;;;;;;;103.43;51.78;;;;;;;;;;5095247;28;20046;-72
2021/01/02 13:44:36;;;;;;;55.33;29.52;;;;;;;;;;5097313;28;20032;-71
2021/01/02 13:47:02;;;;;;;;;;;;;;;;;;5097365;28;20107;-72
2021/01/02 13:49:28;;;;;;;59.45;33.97;;;;;;;;;;5096114;28;19990;-72
2021/01/02 13:51:54;;;;;;;42.38;23.52;;;;;;;;;;5096482;28;20020;-72
2021/01/02 13:54:20;;;;;;;31.40;18.70;;;;;;;;;;5095773;28;20012;-73
2021/01/02 13:56:51;;;;;;;43.53;22.15;;;;;;;;;;5095146;28;20016;-72
2021/01/02 13:59:18;;;;;;;33.35;17.25;;;;;;;;;;5093824;28;20024;-71
2021/01/02 14:01:44;;;;;;;27.15;13.73;;;;;;;;;;5095483;28;20433;-72
2021/01/02 14:04:10;;;;;;;46.05;24.42;;;;;;;;;;5096110;28;20446;-72
2021/01/02 14:06:37;;;;;;;33.08;19.27;;;;;;;;;;5096382;28;20027;-72
2021/01/02 14:09:06;;;;;;;30.83;16.48;;;;;;;;;;5095159;28;20024;-72
2021/01/02 14:11:33;;;;;;;36.70;17.98;;;;;;;;;;5094989;28;20016;-72
2021/01/02 14:13:59;;;;;;;37.20;20.97;;;;;;;;;;5096293;28;20027;-73
2021/01/02 14:16:26;;;;;;;41.72;22.27;;;;;;;;;;5095949;28;20024;-72
2021/01/02 14:18:52;;;;;;;33.92;18.17;;;;;;;;;;5096164;28;20052;-73
2021/01/02 14:21:19;;;;;;;19.48;11.18;;;;;;;;;;5096520;28;20101;-72
2021/01/02 14:23:45;;;;;;;;;;;;;;;;;;5096199;28;20024;-71
2021/01/02 14:26:19;;;;;;;26.27;13.43;;;;;;;;;;5096004;28;19995;-71
2021/01/02 14:28:45;;;;;;;29.05;15.60;;;;;;;;;;5095942;28;20091;-72